createdAt,value
2019-05-07T00:01:59.425Z,16.12
2019-05-07T00:04:29.942Z,16.11
2019-05-07T00:07:02.416Z,16.10
2019-05-07T00:09:33.019Z,15.97
2019-05-07T00:12:05.157Z,15.78
2019-05-07T00:14:35.931Z,15.56
2019-05-07T00:17:06.509Z,15.45
2019-05-07T00:19:37.123Z,15.37
2019-05-07T00:22:12.556Z,15.38
2019-05-07T00:24:43.411Z,15.41
2019-05-07T00:27:14.148Z,15.35
2019-05-07T00:29:44.929Z,15.33
2019-05-07T00:32:15.569Z,15.40
2019-05-07T00:34:47.853Z,15.36
2019-05-07T00:37:23.178Z,15.32
2019-05-07T00:39:55.381Z,15.29
2019-05-07T00:42:32.254Z,15.31
2019-05-07T00:45:17.043Z,15.32
2019-05-07T00:47:39.684Z,15.33
2019-05-07T00:50:18.052Z,15.36
2019-05-07T00:52:48.792Z,15.30
2019-05-07T00:55:19.403Z,15.28
2019-05-07T00:57:50.143Z,15.31
2019-05-07T01:00:22.326Z,15.30
2019-05-07T01:02:53.219Z,15.31
2019-05-07T01:05:24.011Z,15.28
2019-05-07T01:07:54.817Z,15.24
2019-05-07T01:10:25.419Z,15.18
2019-05-07T01:12:58.894Z,15.14
2019-05-07T01:15:31.590Z,15.09
2019-05-07T01:18:02.846Z,15.02
2019-05-07T01:20:33.515Z,14.97
2019-05-07T01:23:05.580Z,15.02
2019-05-07T01:25:36.311Z,15.07
2019-05-07T01:28:06.922Z,15.19
2019-05-07T01:30:37.563Z,15.31
2019-05-07T01:33:12.147Z,15.29
2019-05-07T01:35:43.831Z,15.41
2019-05-07T01:38:16.055Z,15.56
2019-05-07T01:40:46.759Z,15.60
2019-05-07T01:43:17.393Z,15.58
2019-05-07T01:45:49.870Z,15.57
2019-05-07T01:48:23.043Z,15.58
2019-05-07T01:50:53.439Z,15.49
2019-05-07T01:53:24.075Z,15.46
2019-05-07T01:55:54.721Z,15.40
2019-05-07T01:58:25.290Z,15.54
2019-05-07T02:00:56.028Z,15.69
2019-05-07T02:03:42.029Z,15.77
2019-05-07T02:06:17.200Z,15.64
2019-05-07T02:09:02.385Z,15.57
2019-05-07T02:11:42.247Z,15.52
2019-05-07T02:14:13.652Z,15.52
2019-05-07T02:16:44.418Z,15.46
2019-05-07T02:19:15.037Z,15.50
2019-05-07T02:21:45.674Z,15.57
2019-05-07T02:24:16.235Z,15.54
2019-05-07T02:26:46.961Z,15.60
2019-05-07T02:29:19.697Z,15.57
2019-05-07T02:31:53.008Z,15.60
2019-05-07T02:34:23.524Z,15.63
2019-05-07T02:36:54.668Z,15.81
2019-05-07T02:39:33.064Z,15.79
2019-05-07T02:42:03.727Z,15.81
2019-05-07T02:44:36.398Z,15.84
2019-05-07T02:47:12.898Z,15.93
2019-05-07T02:49:48.367Z,15.86
2019-05-07T02:52:22.974Z,15.93
2019-05-07T02:55:03.764Z,16.09
2019-05-07T02:57:33.908Z,16.13
2019-05-07T03:00:07.841Z,16.18
2019-05-07T03:02:38.444Z,16.25
2019-05-07T03:05:09.097Z,16.44
2019-05-07T03:07:42.450Z,16.45
2019-05-07T03:10:13.902Z,16.41
2019-05-07T03:12:45.208Z,16.45
2019-05-07T03:15:15.826Z,16.59
2019-05-07T03:17:46.390Z,16.66
2019-05-07T03:20:36.928Z,16.59
2019-05-07T03:23:09.685Z,16.70
2019-05-07T03:25:54.048Z,16.65
2019-05-07T03:28:25.058Z,16.64
2019-05-07T03:31:17.178Z,16.60
2019-05-07T03:33:56.326Z,16.69
2019-05-07T03:36:47.519Z,16.64
2019-05-07T03:39:16.385Z,16.72
2019-05-07T03:41:47.125Z,16.80
2019-05-07T03:44:19.352Z,16.58
2019-05-07T03:47:01.094Z,16.55
2019-05-07T03:49:34.142Z,16.55
2019-05-07T03:52:04.575Z,16.65
2019-05-07T03:54:37.533Z,16.76
2019-05-07T03:57:11.300Z,16.97
2019-05-07T03:59:43.089Z,16.93
2019-05-07T04:02:14.238Z,16.94
2019-05-07T04:04:45.168Z,17.00
2019-05-07T04:07:15.879Z,17.04
2019-05-07T04:09:46.534Z,16.95
2019-05-07T04:12:17.154Z,16.90
2019-05-07T04:14:47.789Z,16.91
2019-05-07T04:17:23.234Z,17.01
2019-05-07T04:19:53.288Z,17.09
2019-05-07T04:22:28.352Z,16.94
2019-05-07T04:25:00.274Z,17.09
2019-05-07T04:27:33.244Z,17.01
2019-05-07T04:30:06.368Z,17.24
2019-05-07T04:32:47.712Z,17.48
2019-05-07T04:35:28.778Z,17.57
2019-05-07T04:38:02.358Z,17.65
2019-05-07T04:40:33.913Z,17.70
2019-05-07T04:43:04.780Z,17.85
2019-05-07T04:45:35.494Z,18.02
2019-05-07T04:48:06.116Z,18.09
2019-05-07T04:50:44.322Z,18.08
2019-05-07T04:53:14.014Z,18.38
2019-05-07T04:55:44.816Z,18.15
2019-05-07T04:58:15.522Z,18.40
2019-05-07T05:00:48.434Z,18.59
2019-05-07T05:03:23.405Z,18.80
2019-05-07T05:05:53.549Z,19.07
2019-05-07T05:08:24.322Z,19.09
2019-05-07T05:10:55.032Z,19.28
2019-05-07T05:13:25.701Z,19.22
2019-05-07T05:15:56.377Z,19.47
2019-05-07T05:18:27.047Z,19.54
2019-05-07T05:21:02.764Z,19.36
2019-05-07T05:23:42.267Z,19.45
2019-05-07T05:26:12.942Z,19.60
2019-05-07T05:28:43.557Z,19.51
2019-05-07T05:31:14.209Z,19.49
2019-05-07T05:33:44.752Z,19.29
2019-05-07T05:36:15.339Z,19.35
2019-05-07T05:38:45.897Z,19.43
2019-05-07T05:41:16.625Z,19.39
2019-05-07T05:43:48.942Z,19.02
2019-05-07T05:46:22.767Z,19.21
2019-05-07T05:48:53.440Z,19.46
2019-05-07T05:51:25.628Z,19.37
2019-05-07T05:54:14.018Z,19.09
2019-05-07T05:56:49.003Z,20.16
2019-05-07T05:59:25.394Z,20.71
2019-05-07T06:01:58.242Z,21.10
2019-05-07T06:04:46.984Z,22.58
2019-05-07T06:07:25.269Z,21.72
2019-05-07T06:09:57.507Z,21.72
2019-05-07T06:12:35.769Z,22.19
2019-05-07T06:15:14.694Z,24.27
2019-05-07T06:18:04.030Z,24.86
2019-05-07T06:20:35.975Z,24.58
2019-05-07T06:23:17.194Z,26.12
2019-05-07T06:25:48.529Z,25.61
2019-05-07T06:28:22.389Z,25.56
2019-05-07T06:30:53.000Z,26.68
2019-05-07T06:33:23.621Z,24.65
2019-05-07T06:35:54.315Z,23.86
2019-05-07T06:38:26.493Z,23.27
2019-05-07T06:41:07.596Z,25.03
2019-05-07T06:43:45.939Z,24.26
2019-05-07T06:46:16.652Z,24.19
2019-05-07T06:48:47.257Z,23.66
2019-05-07T06:51:17.857Z,24.04
2019-05-07T06:53:48.605Z,23.37
2019-05-07T06:56:19.229Z,23.56
2019-05-07T06:58:57.462Z,23.11
2019-05-07T07:01:35.602Z,23.28
2019-05-07T07:04:07.945Z,23.08
2019-05-07T07:06:49.547Z,23.09
2019-05-07T07:09:28.891Z,23.09
2019-05-07T07:12:17.439Z,23.32
2019-05-07T07:14:51.762Z,23.11
2019-05-07T07:17:22.310Z,23.41
2019-05-07T07:19:53.338Z,23.49
2019-05-07T07:22:24.071Z,23.36
2019-05-07T07:24:54.720Z,23.07
2019-05-07T07:27:25.290Z,23.12
2019-05-07T07:29:57.448Z,23.38
2019-05-07T07:32:31.826Z,23.19
2019-05-07T07:35:03.299Z,23.15
2019-05-07T07:37:42.964Z,22.93
2019-05-07T07:40:29.222Z,22.93
2019-05-07T07:42:59.932Z,22.85
2019-05-07T07:45:32.446Z,23.58
2019-05-07T07:48:03.237Z,23.61
2019-05-07T07:50:33.895Z,23.56
2019-05-07T07:53:04.517Z,24.17
2019-05-07T07:55:36.681Z,24.17
2019-05-07T07:58:09.073Z,24.16
2019-05-07T08:13:01.967Z,23.89
2019-05-07T08:15:33.199Z,23.96
2019-05-07T08:18:03.944Z,23.74
2019-05-07T08:20:34.938Z,23.55
2019-05-07T08:23:05.742Z,23.73
2019-05-07T08:25:48.204Z,23.83
2019-05-07T08:28:22.875Z,23.51
2019-05-07T08:31:00.013Z,23.85
2019-05-07T08:33:32.370Z,23.96
2019-05-07T08:36:12.006Z,24.08
2019-05-07T08:38:52.743Z,23.89
2019-05-07T08:41:25.212Z,23.84
2019-05-07T08:44:09.178Z,23.69
2019-05-07T08:46:44.195Z,23.56
2019-05-07T08:49:16.481Z,24.19
2019-05-07T08:51:48.627Z,24.19
2019-05-07T08:54:19.376Z,24.46
2019-05-07T08:56:50.067Z,24.34
2019-05-07T08:59:22.376Z,24.85
2019-05-07T09:01:53.174Z,24.78
2019-05-07T09:04:23.789Z,24.47
2019-05-07T09:06:54.455Z,24.07
2019-05-07T09:09:25.812Z,24.07
2019-05-07T09:12:03.030Z,24.22
2019-05-07T09:14:36.739Z,24.39
2019-05-07T09:17:07.424Z,24.85
2019-05-07T09:19:48.349Z,25.14
2019-05-07T09:22:12.709Z,24.92
2019-05-07T09:24:43.245Z,25.09
2019-05-07T09:27:15.643Z,25.00
2019-05-07T09:29:47.810Z,24.96
2019-05-07T09:32:22.612Z,25.25
2019-05-07T09:35:09.988Z,25.37
2019-05-07T09:37:42.073Z,25.24
2019-05-07T09:40:13.322Z,25.29
2019-05-07T09:42:44.031Z,25.43
2019-05-07T09:45:15.560Z,25.65
2019-05-07T09:47:46.352Z,25.87
2019-05-07T09:50:17.030Z,25.80
2019-05-07T09:52:53.692Z,25.75
2019-05-07T09:55:24.380Z,25.69
2019-05-07T09:57:55.122Z,25.54
2019-05-07T10:00:26.615Z,25.45
2019-05-07T10:02:57.324Z,25.67
2019-05-07T10:05:28.305Z,26.05
2019-05-07T10:07:59.388Z,26.24
2019-05-07T10:10:30.273Z,26.75
2019-05-07T10:13:05.562Z,26.23
2019-05-07T10:15:36.378Z,26.71
2019-05-07T10:18:08.582Z,26.65
2019-05-07T10:20:39.193Z,26.76
2019-05-07T10:23:11.703Z,27.04
2019-05-07T10:25:42.708Z,26.70
2019-05-07T10:28:13.555Z,26.19
2019-05-07T10:30:44.130Z,26.27
2019-05-07T10:33:14.934Z,26.13
2019-05-07T10:35:45.609Z,26.40
2019-05-07T10:38:16.505Z,26.48
2019-05-07T10:40:47.181Z,26.47
2019-05-07T10:43:17.943Z,26.42
2019-05-07T10:46:05.699Z,26.34
2019-05-07T10:48:38.055Z,25.79
2019-05-07T10:51:08.947Z,25.60
2019-05-07T10:53:39.699Z,25.69
2019-05-07T10:56:11.791Z,25.85
2019-05-07T10:58:42.626Z,25.80
2019-05-07T11:01:15.088Z,25.79
2019-05-07T11:03:45.925Z,25.88
2019-05-07T11:06:18.604Z,25.67
2019-05-07T11:08:49.204Z,25.51
2019-05-07T11:11:20.050Z,25.66
2019-05-07T11:13:55.329Z,25.88
2019-05-07T11:16:24.843Z,25.50
2019-05-07T11:18:55.539Z,26.26
2019-05-07T11:21:33.250Z,26.09
2019-05-07T11:24:04.491Z,25.91
2019-05-07T11:26:35.193Z,26.18
2019-05-07T11:29:05.857Z,26.48
2019-05-07T11:31:36.592Z,26.96
2019-05-07T11:34:07.382Z,26.77
2019-05-07T11:36:38.175Z,26.69
2019-05-07T11:39:08.775Z,26.70
2019-05-07T11:41:42.292Z,26.43
2019-05-07T11:44:14.575Z,26.09
2019-05-07T11:47:03.266Z,25.54
2019-05-07T11:49:49.228Z,25.47
2019-05-07T11:52:22.831Z,24.53
2019-05-07T11:54:53.155Z,25.00
2019-05-07T11:57:23.965Z,24.39
2019-05-07T11:59:54.499Z,24.56
2019-05-07T12:02:25.111Z,24.35
2019-05-07T12:04:55.743Z,24.36
2019-05-07T12:07:26.364Z,23.83
2019-05-07T12:09:57.176Z,23.83
2019-05-07T12:12:27.843Z,23.70
2019-05-07T12:14:58.401Z,23.79
2019-05-07T12:17:29.201Z,23.60
2019-05-07T12:20:02.210Z,23.50
2019-05-07T12:22:47.865Z,23.50
2019-05-07T12:25:19.792Z,23.48
2019-05-07T12:27:52.562Z,23.32
2019-05-07T12:30:42.809Z,23.51
2019-05-07T12:33:18.058Z,23.69
2019-05-07T12:35:48.665Z,23.56
2019-05-07T12:38:19.287Z,23.72
2019-05-07T12:40:52.245Z,23.49
2019-05-07T12:43:22.405Z,23.50
2019-05-07T12:45:53.159Z,23.52
2019-05-07T12:48:23.911Z,23.77
2019-05-07T12:50:54.774Z,24.23
2019-05-07T12:53:31.903Z,24.33
2019-05-07T12:56:04.053Z,24.55
2019-05-07T12:58:34.651Z,24.24
2019-05-07T13:01:07.319Z,24.49
2019-05-07T13:03:51.987Z,24.55
2019-05-07T13:06:22.524Z,24.33
2019-05-07T13:08:54.670Z,23.78
2019-05-07T13:11:25.501Z,23.73
2019-05-07T13:13:56.253Z,23.77
2019-05-07T13:16:26.851Z,23.86
2019-05-07T13:18:57.559Z,24.32
2019-05-07T13:21:28.243Z,24.09
2019-05-07T13:23:58.947Z,24.49
2019-05-07T13:26:29.577Z,24.21
2019-05-07T13:29:02.360Z,24.80
2019-05-07T13:31:34.929Z,24.94
2019-05-07T13:34:05.763Z,24.89
2019-05-07T13:36:38.956Z,24.59
2019-05-07T13:39:26.407Z,23.96
2019-05-07T13:42:07.761Z,24.01
2019-05-07T13:44:40.055Z,23.79
2019-05-07T13:47:27.327Z,23.71
2019-05-07T13:49:57.967Z,23.48
2019-05-07T13:52:28.976Z,23.15
2019-05-07T13:54:59.800Z,23.23
2019-05-07T13:57:32.770Z,23.23
2019-05-07T14:00:05.248Z,22.93
2019-05-07T14:02:35.885Z,23.00
2019-05-07T14:05:07.116Z,22.85
2019-05-07T14:07:41.563Z,22.85
2019-05-07T14:10:12.611Z,23.06
2019-05-07T14:12:43.482Z,22.65
2019-05-07T14:15:15.137Z,22.59
2019-05-07T14:17:45.906Z,22.29
2019-05-07T14:20:16.748Z,22.44
2019-05-07T14:22:47.495Z,22.09
2019-05-07T14:25:21.914Z,22.03
2019-05-07T14:27:55.036Z,21.95
2019-05-07T14:30:25.811Z,22.01
2019-05-07T14:32:58.056Z,21.89
2019-05-07T14:35:32.228Z,21.82
2019-05-07T14:38:07.105Z,21.79
2019-05-07T14:40:37.760Z,21.80
2019-05-07T14:43:12.574Z,21.52
2019-05-07T14:45:43.529Z,21.36
2019-05-07T14:48:14.154Z,21.28
2019-05-07T14:50:45.106Z,21.28
2019-05-07T14:53:15.888Z,21.12
2019-05-07T14:55:46.586Z,20.85
2019-05-07T14:58:17.370Z,20.98
2019-05-07T15:00:48.386Z,20.93
2019-05-07T15:03:19.455Z,20.81
2019-05-07T15:05:50.212Z,20.86
2019-05-07T15:08:21.981Z,20.90
2019-05-07T15:10:52.811Z,20.89
2019-05-07T15:13:23.395Z,20.90
2019-05-07T15:15:54.049Z,20.89
2019-05-07T15:18:26.561Z,21.07
2019-05-07T15:20:57.347Z,20.84
2019-05-07T15:23:33.282Z,20.28
2019-05-07T15:26:04.851Z,19.86
2019-05-07T15:28:37.100Z,19.79
2019-05-07T15:31:21.427Z,19.46
2019-05-07T15:33:52.623Z,19.26
2019-05-07T15:36:23.261Z,19.17
2019-05-07T15:38:53.980Z,19.09
2019-05-07T15:41:24.685Z,19.04
2019-05-07T15:43:55.385Z,18.80
2019-05-07T15:46:26.119Z,18.60
2019-05-07T15:48:56.686Z,18.50
2019-05-07T15:51:27.417Z,18.44
2019-05-07T15:53:59.314Z,18.43
2019-05-07T15:56:32.450Z,18.35
2019-05-07T15:59:03.137Z,18.28
2019-05-07T16:01:34.061Z,18.23
2019-05-07T16:04:19.256Z,18.02
2019-05-07T16:06:38.474Z,17.79
2019-05-07T16:09:09.476Z,17.60
2019-05-07T16:11:40.131Z,17.58
2019-05-07T16:14:14.474Z,17.35
2019-05-07T16:16:48.136Z,17.31
2019-05-07T16:19:20.304Z,17.18
2019-05-07T16:21:50.910Z,17.11
2019-05-07T16:24:22.563Z,17.09
2019-05-07T16:26:55.363Z,16.95
2019-05-07T16:29:25.972Z,16.87
2019-05-07T16:31:56.650Z,16.81
2019-05-07T16:34:28.090Z,16.73
2019-05-07T16:36:58.716Z,16.72
2019-05-07T16:39:29.310Z,16.70
2019-05-07T16:42:01.808Z,16.57
2019-05-07T16:44:33.149Z,16.57
2019-05-07T16:47:04.074Z,16.49
2019-05-07T16:49:34.979Z,16.38
2019-05-07T16:52:05.597Z,16.33
2019-05-07T16:54:37.163Z,16.28
2019-05-07T16:57:27.651Z,16.11
2019-05-07T16:59:58.406Z,16.10
2019-05-07T17:02:32.118Z,15.99
2019-05-07T17:05:05.841Z,15.94
2019-05-07T17:07:39.274Z,15.97
2019-05-07T17:10:11.683Z,15.95
2019-05-07T17:12:44.085Z,15.90
2019-05-07T17:15:15.627Z,15.80
2019-05-07T17:17:46.298Z,15.78
2019-05-07T17:20:17.208Z,15.78
2019-05-07T17:22:47.913Z,15.75
2019-05-07T17:25:37.080Z,15.75
2019-05-07T17:28:08.848Z,15.66
2019-05-07T17:30:41.931Z,15.58
2019-05-07T17:33:12.816Z,15.60
2019-05-07T17:35:45.944Z,15.51
2019-05-07T17:38:16.271Z,15.49
2019-05-07T17:40:47.090Z,15.48
2019-05-07T17:43:17.825Z,15.48
2019-05-07T17:45:49.568Z,15.45
2019-05-07T17:48:23.002Z,15.42
2019-05-07T17:50:54.831Z,15.49
2019-05-07T17:53:56.734Z,15.63
2019-05-07T17:56:27.259Z,15.76
2019-05-07T17:58:57.916Z,15.72
2019-05-07T18:01:30.072Z,15.71
2019-05-07T18:04:02.956Z,15.81
2019-05-07T18:06:33.331Z,15.84
2019-05-07T18:09:05.309Z,15.76
2019-05-07T18:11:36.275Z,15.71
2019-05-07T18:14:08.495Z,15.68
2019-05-07T18:16:59.127Z,15.73
2019-05-07T18:19:33.145Z,15.70
2019-05-07T18:22:04.112Z,15.71
2019-05-07T18:24:34.940Z,15.81
2019-05-07T18:27:07.326Z,15.77
2019-05-07T18:29:37.944Z,15.82
2019-05-07T18:32:08.579Z,15.81
2019-05-07T18:34:39.852Z,15.70
2019-05-07T18:37:12.576Z,15.59
2019-05-07T18:39:43.303Z,15.63
2019-05-07T18:42:13.940Z,15.58
2019-05-07T18:44:45.062Z,15.52
2019-05-07T18:47:15.676Z,15.51
2019-05-07T18:49:46.421Z,15.53
2019-05-07T18:52:18.523Z,15.51
2019-05-07T18:54:49.160Z,15.48
2019-05-07T18:57:22.066Z,15.46
2019-05-07T18:59:53.159Z,15.33
2019-05-07T19:02:24.061Z,15.34
2019-05-07T19:04:54.656Z,15.28
2019-05-07T19:07:25.583Z,15.22
2019-05-07T19:09:56.195Z,15.28
2019-05-07T19:12:28.444Z,15.29
2019-05-07T19:14:59.195Z,15.27
2019-05-07T19:17:29.821Z,15.23
2019-05-07T19:20:03.214Z,15.18
2019-05-07T19:22:33.818Z,15.17
2019-05-07T19:25:04.530Z,15.36
2019-05-07T19:27:35.375Z,15.46
2019-05-07T19:30:07.261Z,15.41
2019-05-07T19:32:37.864Z,15.34
2019-05-07T19:35:12.250Z,15.19
2019-05-07T19:37:42.625Z,15.14
2019-05-07T19:40:13.411Z,15.14
2019-05-07T19:42:44.250Z,14.99
2019-05-07T19:45:18.088Z,14.95
2019-05-07T19:47:47.725Z,15.03
2019-05-07T19:50:19.086Z,15.06
2019-05-07T19:52:49.669Z,14.94
2019-05-07T19:55:25.097Z,14.88
2019-05-07T19:57:57.306Z,14.86
2019-05-07T20:00:28.095Z,14.89
2019-05-07T20:03:00.266Z,14.84
2019-05-07T20:05:32.338Z,14.90
2019-05-07T20:08:04.733Z,14.87
2019-05-07T20:10:37.044Z,14.77
2019-05-07T20:13:07.651Z,14.78
2019-05-07T20:15:42.613Z,14.83
2019-05-07T20:18:13.438Z,14.87
2019-05-07T20:20:45.642Z,15.04
2019-05-07T20:23:16.427Z,14.98
2019-05-07T20:25:47.149Z,14.93
2019-05-07T20:28:17.818Z,14.86
2019-05-07T20:30:49.378Z,14.84
2019-05-07T20:33:21.966Z,14.82
2019-05-07T20:35:52.773Z,14.79
2019-05-07T20:38:23.491Z,14.92
2019-05-07T20:40:54.088Z,14.91
2019-05-07T20:43:24.723Z,14.89
2019-05-07T20:45:55.451Z,14.94
2019-05-07T20:48:29.237Z,14.95
2019-05-07T20:50:59.838Z,15.10
2019-05-07T20:53:48.487Z,15.19
2019-05-07T20:56:22.553Z,15.13
2019-05-07T20:58:53.327Z,15.14
2019-05-07T21:01:23.949Z,15.07
2019-05-07T21:03:54.531Z,15.02
2019-05-07T21:06:25.397Z,14.94
2019-05-07T21:08:56.078Z,14.95
2019-05-07T21:11:28.391Z,14.97
2019-05-07T21:13:58.982Z,14.94
2019-05-07T21:16:29.667Z,14.87
2019-05-07T21:19:01.995Z,14.86
2019-05-07T21:21:33.160Z,14.84
2019-05-07T21:24:04.091Z,14.88
2019-05-07T21:26:34.788Z,14.86
2019-05-07T21:29:06.078Z,14.85
2019-05-07T21:31:37.009Z,14.85
2019-05-07T21:34:07.855Z,14.86
2019-05-07T21:36:38.514Z,14.89
2019-05-07T21:39:09.256Z,14.86
2019-05-07T21:41:42.417Z,14.80
2019-05-07T21:44:16.944Z,14.63
2019-05-07T21:46:47.572Z,14.61
2019-05-07T21:49:18.205Z,14.60
2019-05-07T21:51:48.874Z,14.65
2019-05-07T21:54:24.534Z,14.68
2019-05-07T21:57:14.617Z,14.75
2019-05-07T21:59:45.388Z,14.72
2019-05-07T22:02:18.136Z,14.73
2019-05-07T22:04:49.005Z,14.76
2019-05-07T22:07:19.856Z,14.78
2019-05-07T22:09:52.340Z,14.70
2019-05-07T22:12:24.017Z,14.67
2019-05-07T22:14:55.079Z,14.74
2019-05-07T22:17:25.859Z,14.68
2019-05-07T22:19:56.485Z,14.66
2019-05-07T22:22:26.989Z,14.62
2019-05-07T22:24:57.646Z,14.52
2019-05-07T22:27:28.409Z,14.53
2019-05-07T22:29:58.982Z,14.50
2019-05-07T22:32:34.141Z,14.44
2019-05-07T22:35:17.962Z,14.43
2019-05-07T22:37:48.580Z,14.30
2019-05-07T22:40:19.193Z,14.26
2019-05-07T22:42:49.980Z,14.31
2019-05-07T22:45:22.687Z,14.20
2019-05-07T22:47:53.206Z,14.24
2019-05-07T22:50:23.821Z,14.29
2019-05-07T22:52:54.573Z,14.28
2019-05-07T22:55:26.412Z,14.28
2019-05-07T22:58:00.627Z,14.28
2019-05-07T23:00:32.859Z,14.33
2019-05-07T23:03:04.306Z,14.33
2019-05-07T23:05:35.129Z,14.42
2019-05-07T23:08:06.168Z,14.35
2019-05-07T23:10:36.817Z,14.45
2019-05-07T23:13:07.375Z,14.39
2019-05-07T23:15:37.942Z,14.50
2019-05-07T23:18:08.600Z,14.42
2019-05-07T23:20:39.144Z,14.40
2019-05-07T23:23:13.939Z,14.46
2019-05-07T23:25:43.087Z,14.44
2019-05-07T23:28:13.936Z,14.44
2019-05-07T23:30:44.508Z,14.52
2019-05-07T23:33:15.034Z,14.58
2019-05-07T23:35:46.042Z,14.59
2019-05-07T23:38:17.698Z,14.71
2019-05-07T23:40:49.964Z,14.65
2019-05-07T23:43:22.758Z,14.68
2019-05-07T23:45:53.554Z,14.49
2019-05-07T23:48:25.449Z,14.47
2019-05-07T23:50:56.033Z,14.53
2019-05-07T23:53:27.184Z,14.58
2019-05-07T23:55:57.756Z,14.53
2019-05-07T23:58:28.610Z,14.44
